Time;durP1;ratioP1;P1;durP2;ratioP2;P2;SDS_P1;SDS_P2;PMS_P1;PMS_P2;Temp;Humidity;BMP_temperature;BMP_pressure;BME280_temperature;BME280_humidity;BME280_pressure;Samples;Min_cycle;Max_cycle;Signal;HPM_P1;HPM_P2
2022/09/04 00:00:17;;;;;;;7.43;3.77;;;;;;;;;;5017228;28;20550;-70
2022/09/04 00:02:49;;;;;;;5.63;4.83;;;;;;;;;;5017320;28;20557;-68
2022/09/04 00:05:21;;;;;;;3.70;3.60;;;;;;;;;;5017285;28;20488;-71
2022/09/04 00:07:53;;;;;;;4.40;3.73;;;;;;;;;;5017237;28;20427;-66
2022/09/04 00:10:28;;;;;;;3.27;3.03;;;;;;;;;;5017233;28;20922;-67
2022/09/04 00:12:59;;;;;;;5.70;3.80;;;;;;;;;;5017360;28;20408;-67
2022/09/04 00:15:34;;;;;;;4.27;3.90;;;;;;;;;;5017108;28;20510;-67
2022/09/04 00:18:00;;;;;;;7.13;3.87;;;;;;;;;;5017101;28;20402;-66
2022/09/04 00:20:34;;;;;;;4.33;3.97;;;;;;;;;;5016934;28;20479;-67
2022/09/04 00:23:18;;;;;;;7.60;4.00;;;;;;;;;;5016879;28;20893;-67
2022/09/04 00:25:52;;;;;;;3.37;3.17;;;;;;;;;;5016833;28;21013;-67
2022/09/04 00:28:34;;;;;;;4.37;4.07;;;;;;;;;;5016794;28;20385;-67
2022/09/04 00:31:24;;;;;;;4.70;4.50;;;;;;;;;;5016843;28;20412;-67
2022/09/04 00:33:56;;;;;;;7.50;3.93;;;;;;;;;;5016695;28;20408;-67
2022/09/04 00:36:24;;;;;;;3.50;3.40;;;;;;;;;;5016750;28;20418;-67
2022/09/04 00:38:56;;;;;;;2.80;2.77;;;;;;;;;;5016635;28;20491;-67
2022/09/04 00:41:42;;;;;;;3.70;3.40;;;;;;;;;;5016625;28;20464;-67
2022/09/04 00:44:08;;;;;;;4.53;3.53;;;;;;;;;;5016521;28;20466;-70
2022/09/04 00:46:53;;;;;;;5.30;3.50;;;;;;;;;;5016463;28;20412;-67
2022/09/04 00:49:27;;;;;;;5.80;3.43;;;;;;;;;;5016453;28;20910;-66
2022/09/04 00:52:11;;;;;;;13.20;4.17;;;;;;;;;;5016404;28;20495;-67
2022/09/04 00:54:44;;;;;;;5.07;3.50;;;;;;;;;;5016288;28;20411;-68
2022/09/04 00:57:22;;;;;;;7.27;3.47;;;;;;;;;;5016286;28;20423;-67
2022/09/04 01:00:06;;;;;;;4.00;3.80;;;;;;;;;;5016169;28;20419;-67
2022/09/04 01:02:44;;;;;;;7.80;3.77;;;;;;;;;;5016301;28;20499;-66
2022/09/04 01:05:12;;;;;;;3.60;3.50;;;;;;;;;;5016101;28;20449;-66
2022/09/04 01:07:49;;;;;;;4.43;3.53;;;;;;;;;;5016103;28;21050;-67
2022/09/04 01:10:15;;;;;;;4.60;3.83;;;;;;;;;;5031264;28;20822;-68
2022/09/04 01:12:41;;;;;;;3.87;3.70;;;;;;;;;;5016057;28;20413;-68
2022/09/04 01:15:13;;;;;;;6.60;3.70;;;;;;;;;;5015997;28;20803;-67
2022/09/04 01:18:11;;;;;;;5.37;4.80;;;;;;;;;;5015932;28;20564;-68
2022/09/04 01:20:37;;;;;;;5.83;3.60;;;;;;;;;;5025362;28;20482;-66
2022/09/04 01:23:03;;;;;;;3.40;3.30;;;;;;;;;;5015810;28;20771;-67
2022/09/04 01:25:48;;;;;;;4.07;3.77;;;;;;;;;;5015765;28;20431;-69
2022/09/04 01:28:26;;;;;;;5.67;3.80;;;;;;;;;;5015824;28;20461;-68
2022/09/04 01:31:07;;;;;;;4.27;3.90;;;;;;;;;;5015582;28;20411;-67
2022/09/04 01:33:53;;;;;;;9.20;3.40;;;;;;;;;;5015638;28;20403;-67
2022/09/04 01:36:21;;;;;;;3.80;3.50;;;;;;;;;;5015582;28;20938;-67
2022/09/04 01:38:52;;;;;;;5.27;4.00;;;;;;;;;;5015505;28;20737;-66
2022/09/04 01:41:21;;;;;;;3.80;3.70;;;;;;;;;;5015436;28;20502;-67
2022/09/04 01:43:48;;;;;;;5.33;4.30;;;;;;;;;;5015394;28;20408;-66
2022/09/04 01:46:32;;;;;;;14.60;5.70;;;;;;;;;;5015474;28;20407;-67
2022/09/04 01:49:03;;;;;;;5.13;4.60;;;;;;;;;;5015340;28;20466;-67
2022/09/04 01:51:29;;;;;;;5.37;4.70;;;;;;;;;;5015095;28;20459;-67
2022/09/04 01:54:10;;;;;;;4.40;4.20;;;;;;;;;;5015220;28;20498;-66
2022/09/04 01:56:50;;;;;;;5.53;4.50;;;;;;;;;;5015426;28;20456;-66
2022/09/04 01:59:26;;;;;;;6.70;4.10;;;;;;;;;;5015159;28;20432;-67
2022/09/04 02:01:53;;;;;;;8.40;4.30;;;;;;;;;;5014962;28;20471;-69
2022/09/04 02:04:48;;;;;;;4.50;3.73;;;;;;;;;;5014992;28;20844;-67
2022/09/04 02:07:31;;;;;;;4.30;4.10;;;;;;;;;;5030189;28;21021;-66
2022/09/04 02:10:06;;;;;;;4.00;3.70;;;;;;;;;;5014376;28;20403;-67
2022/09/04 02:12:34;;;;;;;9.57;3.57;;;;;;;;;;5014869;28;20422;-66
2022/09/04 02:15:02;;;;;;;3.53;3.20;;;;;;;;;;5015102;28;20400;-68
2022/09/04 02:18:05;;;;;;;4.20;3.80;;;;;;;;;;5014729;28;20487;-67
2022/09/04 02:20:31;;;;;;;8.73;3.70;;;;;;;;;;5032243;28;20479;-67
2022/09/04 02:22:57;;;;;;;6.10;3.87;;;;;;;;;;5018156;28;20428;-67
2022/09/04 02:25:41;;;;;;;7.20;3.80;;;;;;;;;;5014653;28;20419;-66
2022/09/04 02:28:20;;;;;;;14.00;4.00;;;;;;;;;;5014586;28;20400;-67
2022/09/04 02:30:52;;;;;;;4.50;4.20;;;;;;;;;;5014576;28;20414;-67
2022/09/04 02:33:37;;;;;;;4.50;4.03;;;;;;;;;;5014546;28;20419;-67
2022/09/04 02:36:08;;;;;;;7.40;4.40;;;;;;;;;;5014510;28;20465;-67
2022/09/04 02:38:53;;;;;;;8.53;3.63;;;;;;;;;;5014368;28;20415;-66
2022/09/04 02:41:37;;;;;;;3.47;3.30;;;;;;;;;;5014545;28;20482;-67
2022/09/04 02:44:15;;;;;;;5.17;3.60;;;;;;;;;;5014353;28;20505;-67
2022/09/04 02:46:48;;;;;;;7.93;3.73;;;;;;;;;;5014282;28;20404;-67
2022/09/04 02:49:14;;;;;;;3.20;3.00;;;;;;;;;;5014258;28;20444;-67
2022/09/04 02:51:40;;;;;;;3.30;3.20;;;;;;;;;;5014068;28;20495;-66
2022/09/04 02:54:23;;;;;;;2.90;2.77;;;;;;;;;;5014257;28;20415;-67
2022/09/04 02:56:52;;;;;;;6.23;2.90;;;;;;;;;;5014123;28;20840;-67
2022/09/04 02:59:24;;;;;;;4.50;2.57;;;;;;;;;;5014088;28;20776;-66
2022/09/04 03:01:56;;;;;;;3.40;3.17;;;;;;;;;;5014047;28;20968;-70
2022/09/04 03:04:41;;;;;;;7.00;2.80;;;;;;;;;;5014053;28;20801;-78
2022/09/04 03:07:17;;;;;;;6.53;3.33;;;;;;;;;;5014019;28;20391;-78
2022/09/04 03:09:43;;;;;;;3.73;3.53;;;;;;;;;;5013986;28;20422;-74
2022/09/04 03:12:28;;;;;;;3.67;3.40;;;;;;;;;;5013906;28;20413;-72
2022/09/04 03:15:00;;;;;;;6.47;3.10;;;;;;;;;;5013906;28;20930;-77
2022/09/04 03:17:34;;;;;;;3.73;3.60;;;;;;;;;;5014031;28;20412;-75
2022/09/04 03:20:04;;;;;;;3.83;3.63;;;;;;;;;;5013751;28;20569;-78
2022/09/04 03:22:33;;;;;;;3.23;2.80;;;;;;;;;;5013158;28;20418;-78
2022/09/04 03:25:06;;;;;;;5.50;3.93;;;;;;;;;;5013824;28;20826;-78
2022/09/04 03:27:32;;;;;;;5.37;3.30;;;;;;;;;;5013883;28;20403;-78
2022/09/04 03:30:09;;;;;;;3.30;3.00;;;;;;;;;;5013795;28;20442;-79
2022/09/04 03:32:47;;;;;;;6.30;2.97;;;;;;;;;;5013679;28;20469;-76
2022/09/04 03:35:21;;;;;;;4.90;3.20;;;;;;;;;;5013820;28;20394;-74
2022/09/04 03:38:01;;;;;;;4.87;3.27;;;;;;;;;;5013563;28;20415;-78
2022/09/04 03:40:42;;;;;;;7.57;3.30;;;;;;;;;;5013513;28;20815;-78
2022/09/04 03:43:20;;;;;;;4.00;2.90;;;;;;;;;;5013851;28;20850;-74
2022/09/04 03:45:54;;;;;;;6.07;3.07;;;;;;;;;;5013692;28;20910;-67
2022/09/04 03:48:23;;;;;;;6.13;3.80;;;;;;;;;;5013654;28;20400;-78
2022/09/04 03:51:04;;;;;;;4.03;3.70;;;;;;;;;;5013585;28;20404;-77
2022/09/04 03:53:45;;;;;;;3.13;2.90;;;;;;;;;;5013341;28;20491;-78
2022/09/04 03:56:38;;;;;;;3.23;3.13;;;;;;;;;;5013501;28;20426;-68
2022/09/04 03:59:07;;;;;;;8.50;3.57;;;;;;;;;;5013491;28;20394;-72
2022/09/04 04:01:51;;;;;;;3.50;3.23;;;;;;;;;;5013414;28;20497;-77
2022/09/04 04:04:42;;;;;;;5.87;3.73;;;;;;;;;;5013414;28;21028;-77
2022/09/04 04:07:20;;;;;;;10.43;3.73;;;;;;;;;;5013323;28;20405;-78
2022/09/04 04:09:49;;;;;;;3.77;3.33;;;;;;;;;;5013368;28;20418;-73
2022/09/04 04:12:26;;;;;;;3.60;3.40;;;;;;;;;;5013387;28;20904;-75
2022/09/04 04:15:02;;;;;;;3.40;3.30;;;;;;;;;;5013326;28;20405;-67
2022/09/04 04:17:47;;;;;;;3.87;3.57;;;;;;;;;;5013310;28;20433;-66
2022/09/04 04:20:15;;;;;;;3.40;3.10;;;;;;;;;;5013469;28;20461;-66
2022/09/04 04:22:50;;;;;;;3.97;3.10;;;;;;;;;;5013245;28;20509;-78
2022/09/04 04:25:16;;;;;;;3.83;3.47;;;;;;;;;;5013158;28;20405;-68
2022/09/04 04:27:47;;;;;;;6.30;3.30;;;;;;;;;;5013480;28;20465;-74
2022/09/04 04:30:15;;;;;;;3.73;3.53;;;;;;;;;;5013221;28;20402;-78
2022/09/04 04:32:42;;;;;;;6.23;3.23;;;;;;;;;;5014531;28;20406;-74
2022/09/04 04:35:26;;;;;;;5.67;3.20;;;;;;;;;;5016797;28;20739;-74
2022/09/04 04:37:53;;;;;;;3.50;3.17;;;;;;;;;;5016772;28;20442;-74
2022/09/04 04:40:31;;;;;;;3.33;3.13;;;;;;;;;;5016538;28;20469;-73
2022/09/04 04:43:16;;;;;;;3.50;3.40;;;;;;;;;;5016589;28;20955;-76
2022/09/04 04:45:51;;;;;;;3.97;3.67;;;;;;;;;;5016635;28;20398;-73
2022/09/04 04:48:35;;;;;;;11.03;3.60;;;;;;;;;;5016784;28;20829;-74
2022/09/04 04:51:20;;;;;;;3.27;3.20;;;;;;;;;;5016465;28;20819;-78
2022/09/04 04:53:53;;;;;;;4.27;3.60;;;;;;;;;;5016461;28;20436;-76
2022/09/04 04:56:22;;;;;;;4.70;3.37;;;;;;;;;;5016437;28;20414;-71
2022/09/04 04:59:06;;;;;;;4.20;3.87;;;;;;;;;;5016296;28;20402;-72
2022/09/04 05:01:42;;;;;;;5.90;3.60;;;;;;;;;;5016197;28;20554;-71
2022/09/04 05:04:14;;;;;;;3.80;3.60;;;;;;;;;;5016151;28;20780;-77
2022/09/04 05:06:40;;;;;;;7.17;3.73;;;;;;;;;;5016424;28;20410;-69
2022/09/04 05:09:09;;;;;;;4.03;3.57;;;;;;;;;;5016035;28;20401;-71
2022/09/04 05:11:43;;;;;;;6.53;3.93;;;;;;;;;;5016044;28;20396;-71
2022/09/04 05:14:15;;;;;;;4.33;4.10;;;;;;;;;;5015934;28;20401;-69
2022/09/04 05:17:05;;;;;;;4.37;3.83;;;;;;;;;;5016046;28;20451;-76
2022/09/04 05:19:43;;;;;;;6.23;4.47;;;;;;;;;;5016033;28;20502;-76
2022/09/04 05:22:19;;;;;;;3.87;3.77;;;;;;;;;;5015818;28;20432;-70
2022/09/04 05:24:52;;;;;;;4.67;4.43;;;;;;;;;;5015877;28;20406;-68
2022/09/04 05:27:38;;;;;;;4.13;4.00;;;;;;;;;;5015717;28;20410;-72
2022/09/04 05:30:07;;;;;;;5.27;4.17;;;;;;;;;;5015807;28;20404;-73
2022/09/04 05:32:35;;;;;;;5.17;3.80;;;;;;;;;;5015684;28;20411;-69
2022/09/04 05:35:06;;;;;;;4.07;3.97;;;;;;;;;;5015725;28;20405;-74
2022/09/04 05:38:08;;;;;;;4.30;3.50;;;;;;;;;;5015535;28;20403;-70
2022/09/04 05:40:52;;;;;;;3.60;3.40;;;;;;;;;;5033068;28;20466;-73
2022/09/04 05:43:24;;;;;;;9.47;3.90;;;;;;;;;;5016700;28;20438;-75
2022/09/04 05:46:06;;;;;;;6.50;4.03;;;;;;;;;;5014896;28;20738;-74
2022/09/04 05:48:57;;;;;;;3.80;3.60;;;;;;;;;;5015614;28;20397;-74
2022/09/04 05:51:26;;;;;;;4.63;4.23;;;;;;;;;;5015138;28;20430;-71
2022/09/04 05:53:55;;;;;;;4.63;4.20;;;;;;;;;;5015361;28;20505;-76
2022/09/04 05:56:28;;;;;;;7.20;4.63;;;;;;;;;;5015221;28;20798;-76
2022/09/04 05:58:53;;;;;;;7.40;4.27;;;;;;;;;;5015188;28;20906;-71
2022/09/04 06:01:52;;;;;;;4.53;4.13;;;;;;;;;;5015070;28;20556;-70
2022/09/04 06:04:33;;;;;;;5.97;4.13;;;;;;;;;;5015243;28;20420;-71
2022/09/04 06:07:02;;;;;;;4.03;3.93;;;;;;;;;;5014918;28;20410;-68
2022/09/04 06:09:31;;;;;;;6.30;3.67;;;;;;;;;;5014992;28;20419;-74
2022/09/04 06:11:57;;;;;;;4.73;3.80;;;;;;;;;;5014885;28;20485;-75
2022/09/04 06:14:36;;;;;;;13.93;4.40;;;;;;;;;;5014866;28;20440;-68
2022/09/04 06:17:05;;;;;;;8.97;4.90;;;;;;;;;;5014807;28;20405;-69
2022/09/04 06:19:30;;;;;;;4.10;3.90;;;;;;;;;;5014865;28;20416;-66
2022/09/04 06:21:56;;;;;;;4.27;3.87;;;;;;;;;;5014577;28;20482;-72
2022/09/04 06:24:22;;;;;;;4.43;3.93;;;;;;;;;;5014769;28;20420;-76
2022/09/04 06:26:54;;;;;;;4.50;4.10;;;;;;;;;;5014591;28;20409;-68
2022/09/04 06:29:46;;;;;;;11.03;4.73;;;;;;;;;;5014669;28;20829;-75
2022/09/04 06:32:12;;;;;;;8.60;4.30;;;;;;;;;;5014803;28;20413;-73
2022/09/04 06:34:38;;;;;;;5.27;4.00;;;;;;;;;;5014543;28;20769;-72
2022/09/04 06:37:16;;;;;;;4.60;4.20;;;;;;;;;;5014495;28;20849;-72
2022/09/04 06:39:49;;;;;;;3.90;3.70;;;;;;;;;;5014404;28;20828;-73
2022/09/04 06:42:20;;;;;;;4.47;4.07;;;;;;;;;;5014382;28;20424;-73
2022/09/04 06:44:54;;;;;;;5.63;4.20;;;;;;;;;;5014379;28;20408;-73
2022/09/04 06:47:31;;;;;;;5.60;4.10;;;;;;;;;;5014272;28;20951;-70
2022/09/04 06:50:10;;;;;;;7.43;3.70;;;;;;;;;;5014311;28;20409;-73
2022/09/04 06:52:39;;;;;;;4.40;4.10;;;;;;;;;;5014040;28;20464;-72
2022/09/04 06:55:08;;;;;;;5.20;4.20;;;;;;;;;;5014114;28;20413;-72
2022/09/04 06:57:54;;;;;;;5.23;4.40;;;;;;;;;;5014126;28;20734;-72
2022/09/04 07:00:20;;;;;;;4.83;3.83;;;;;;;;;;5013993;28;20551;-73
2022/09/04 07:02:55;;;;;;;6.90;4.70;;;;;;;;;;5014321;28;20426;-72
2022/09/04 07:05:28;;;;;;;6.03;4.73;;;;;;;;;;5014103;28;20409;-72
2022/09/04 07:07:56;;;;;;;4.40;4.20;;;;;;;;;;5013995;28;20456;-72
2022/09/04 07:10:22;;;;;;;7.10;4.10;;;;;;;;;;5013948;28;20495;-68
2022/09/04 07:13:04;;;;;;;4.50;4.10;;;;;;;;;;5013914;28;20509;-71
2022/09/04 07:15:30;;;;;;;3.90;3.60;;;;;;;;;;5014019;28;20408;-72
2022/09/04 07:18:05;;;;;;;4.33;3.97;;;;;;;;;;5014123;28;20900;-73
2022/09/04 07:20:36;;;;;;;6.60;4.20;;;;;;;;;;5013848;28;20471;-73
2022/09/04 07:23:09;;;;;;;7.57;3.83;;;;;;;;;;5013736;28;20428;-72
2022/09/04 07:25:39;;;;;;;6.40;4.13;;;;;;;;;;5013708;28;20782;-72
2022/09/04 07:28:22;;;;;;;4.60;4.00;;;;;;;;;;5013868;28;20501;-75
2022/09/04 07:30:56;;;;;;;3.93;3.63;;;;;;;;;;5014011;28;20413;-78
2022/09/04 07:33:33;;;;;;;4.60;4.20;;;;;;;;;;5013872;28;20411;-77
2022/09/04 07:36:06;;;;;;;6.50;4.80;;;;;;;;;;5013911;28;20834;-75
2022/09/04 07:38:35;;;;;;;4.50;4.30;;;;;;;;;;5013708;28;20406;-75
2022/09/04 07:41:11;;;;;;;4.33;4.23;;;;;;;;;;5013784;28;20494;-76
2022/09/04 07:43:40;;;;;;;4.67;4.30;;;;;;;;;;5013463;28;20431;-77
2022/09/04 07:46:17;;;;;;;3.90;3.70;;;;;;;;;;5013553;28;20468;-74
2022/09/04 07:49:08;;;;;;;4.20;3.90;;;;;;;;;;5013274;28;20401;-75
2022/09/04 07:51:41;;;;;;;4.83;4.30;;;;;;;;;;5013368;28;20432;-76
2022/09/04 07:54:36;;;;;;;3.90;3.60;;;;;;;;;;5013463;28;20965;-77
2022/09/04 07:57:04;;;;;;;4.73;3.70;;;;;;;;;;5013439;28;20408;-77
2022/09/04 07:59:49;;;;;;;3.63;3.43;;;;;;;;;;5013454;28;20427;-78
2022/09/04 08:02:15;;;;;;;4.30;3.30;;;;;;;;;;5013452;28;20512;-78
2022/09/04 08:04:43;;;;;;;3.30;3.17;;;;;;;;;;5013387;28;20420;-75
2022/09/04 08:07:14;;;;;;;3.33;3.03;;;;;;;;;;5013850;28;20409;-77
2022/09/04 08:09:50;;;;;;;6.80;3.20;;;;;;;;;;5017301;28;20532;-73
2022/09/04 08:12:18;;;;;;;3.37;3.00;;;;;;;;;;5017225;28;20895;-79
2022/09/04 08:14:56;;;;;;;6.93;2.73;;;;;;;;;;5017202;28;20494;-67
2022/09/04 08:18:00;;;;;;;3.43;2.83;;;;;;;;;;5017077;28;20409;-78
2022/09/04 08:21:05;;;;;;;4.07;2.87;;;;;;;;;;5034549;28;20480;-76
2022/09/04 08:23:33;;;;;;;3.03;3.03;;;;;;;;;;4956532;29;20423;-74
2022/09/04 08:26:18;;;;;;;3.17;2.97;;;;;;;;;;4979301;28;20439;-75
2022/09/04 08:28:43;;;;;;;3.73;3.20;;;;;;;;;;5016861;28;20504;-75
2022/09/04 08:31:45;;;;;;;6.90;3.23;;;;;;;;;;5016864;28;20452;-77
2022/09/04 08:34:26;;;;;;;3.30;3.10;;;;;;;;;;5034545;28;20848;-77
2022/09/04 08:37:12;;;;;;;4.80;3.00;;;;;;;;;;5018699;28;20468;-70
2022/09/04 08:39:56;;;;;;;3.10;2.80;;;;;;;;;;5031869;28;20921;-69
2022/09/04 08:42:41;;;;;;;3.10;2.70;;;;;;;;;;5016699;28;20449;-76
2022/09/04 08:45:26;;;;;;;3.00;2.87;;;;;;;;;;5016621;28;20439;-72
2022/09/04 08:47:58;;;;;;;3.00;2.70;;;;;;;;;;5016512;28;20407;-77
2022/09/04 08:50:39;;;;;;;2.83;2.73;;;;;;;;;;5016419;28;20404;-75
2022/09/04 08:53:05;;;;;;;4.03;3.03;;;;;;;;;;5031551;28;20483;-69
2022/09/04 08:55:49;;;;;;;2.90;2.90;;;;;;;;;;5016608;28;20416;-76
2022/09/04 08:58:40;;;;;;;2.73;2.53;;;;;;;;;;5016562;28;20749;-74
2022/09/04 09:01:09;;;;;;;6.20;2.60;;;;;;;;;;5016133;28;20575;-77
2022/09/04 09:03:47;;;;;;;2.67;2.53;;;;;;;;;;5016534;28;20819;-67
2022/09/04 09:06:16;;;;;;;5.20;2.90;;;;;;;;;;5016249;28;20413;-67
2022/09/04 09:08:42;;;;;;;3.37;2.20;;;;;;;;;;5016016;28;20450;-67
2022/09/04 09:11:11;;;;;;;9.90;2.83;;;;;;;;;;5016130;28;20502;-67
2022/09/04 09:13:37;;;;;;;2.80;2.70;;;;;;;;;;5016041;28;20394;-67
2022/09/04 09:16:06;;;;;;;2.53;2.53;;;;;;;;;;5016002;28;20408;-67
2022/09/04 09:18:58;;;;;;;3.60;2.70;;;;;;;;;;5015016;28;20399;-67
2022/09/04 09:21:49;;;;;;;5.00;2.67;;;;;;;;;;5015951;28;20642;-67
2022/09/04 09:24:33;;;;;;;2.67;2.57;;;;;;;;;;5015811;28;20393;-67
2022/09/04 09:27:18;;;;;;;2.43;2.23;;;;;;;;;;5015998;28;20407;-68
2022/09/04 09:29:47;;;;;;;7.70;2.50;;;;;;;;;;5016022;28;20465;-68
2022/09/04 09:32:51;;;;;;;2.33;2.20;;;;;;;;;;5015778;28;20442;-68
2022/09/04 09:35:36;;;;;;;2.73;2.10;;;;;;;;;;5033331;28;20424;-74
2022/09/04 09:38:19;;;;;;;1.87;1.87;;;;;;;;;;5023019;28;20930;-75
2022/09/04 09:40:52;;;;;;;2.40;2.30;;;;;;;;;;5015148;28;20515;-69
2022/09/04 09:43:38;;;;;;;2.00;1.90;;;;;;;;;;5015046;28;20905;-67
2022/09/04 09:46:04;;;;;;;2.10;2.00;;;;;;;;;;5015346;28;20412;-70
2022/09/04 09:48:39;;;;;;;2.20;2.10;;;;;;;;;;5015309;28;20407;-68
2022/09/04 09:51:08;;;;;;;2.33;2.23;;;;;;;;;;5015416;28;20414;-67
2022/09/04 09:53:50;;;;;;;2.00;2.00;;;;;;;;;;5015173;28;20523;-68
2022/09/04 09:56:25;;;;;;;1.87;1.77;;;;;;;;;;5015306;28;20419;-70
2022/09/04 09:59:09;;;;;;;3.23;2.50;;;;;;;;;;5015288;28;20908;-68
2022/09/04 10:02:01;;;;;;;2.37;2.27;;;;;;;;;;5014991;28;20469;-69
2022/09/04 10:04:43;;;;;;;2.70;1.90;;;;;;;;;;5015274;28;20419;-67
2022/09/04 10:07:17;;;;;;;1.83;1.80;;;;;;;;;;5014915;28;20407;-67
2022/09/04 10:10:09;;;;;;;1.87;1.77;;;;;;;;;;5015181;28;20400;-68
2022/09/04 10:12:41;;;;;;;1.87;1.77;;;;;;;;;;5014821;28;20418;-68
2022/09/04 10:15:26;;;;;;;2.30;2.20;;;;;;;;;;5014805;28;20408;-66
2022/09/04 10:18:10;;;;;;;1.97;1.90;;;;;;;;;;5014683;28;20430;-66
2022/09/04 10:20:46;;;;;;;1.60;1.50;;;;;;;;;;5014503;28;21019;-68
2022/09/04 10:23:26;;;;;;;1.70;1.60;;;;;;;;;;5014667;28;20427;-69
2022/09/04 10:26:11;;;;;;;6.70;6.20;;;;;;;;;;5014689;28;20399;-69
2022/09/04 10:28:39;;;;;;;3.80;2.50;;;;;;;;;;5014619;28;20404;-66
2022/09/04 10:31:14;;;;;;;2.00;1.90;;;;;;;;;;5014399;28;20466;-68
2022/09/04 10:34:03;;;;;;;1.67;1.57;;;;;;;;;;5014560;28;20896;-68
2022/09/04 10:36:56;;;;;;;1.40;1.40;;;;;;;;;;5022517;28;20429;-65
2022/09/04 10:42:23;;;;;;;3.80;1.67;;;;;;;;;;5014302;28;20497;-68
2022/09/04 10:44:52;;;;;;;1.30;1.27;;;;;;;;;;5014317;28;20482;-66
2022/09/04 10:47:51;;;;;;;1.30;1.30;;;;;;;;;;5014260;28;20411;-66
2022/09/04 10:50:27;;;;;;;3.70;1.90;;;;;;;;;;5023711;28;20475;-69
2022/09/04 10:53:05;;;;;;;1.60;1.60;;;;;;;;;;5013971;28;20476;-68
2022/09/04 10:55:31;;;;;;;1.40;1.30;;;;;;;;;;5014096;28;20393;-69
2022/09/04 10:58:16;;;;;;;1.50;1.40;;;;;;;;;;5013803;28;20495;-70
2022/09/04 11:00:48;;;;;;;3.07;1.67;;;;;;;;;;5014211;28;20598;-70
2022/09/04 11:03:26;;;;;;;1.50;1.50;;;;;;;;;;5013873;28;20925;-67
2022/09/04 11:05:52;;;;;;;1.40;1.40;;;;;;;;;;5014042;28;20495;-65
2022/09/04 11:08:37;;;;;;;1.73;1.43;;;;;;;;;;5013890;28;20916;-65
2022/09/04 11:11:27;;;;;;;2.40;1.40;;;;;;;;;;5013744;28;20173;-67
2022/09/04 11:14:05;;;;;;;1.50;1.50;;;;;;;;;;5013604;28;20492;-66
2022/09/04 11:16:43;;;;;;;1.00;1.00;;;;;;;;;;5013812;28;20409;-67
2022/09/04 11:19:36;;;;;;;1.10;1.10;;;;;;;;;;5013807;28;20459;-67
2022/09/04 11:22:02;;;;;;;1.03;1.03;;;;;;;;;;5020185;28;20512;-68
2022/09/04 11:24:41;;;;;;;1.07;1.07;;;;;;;;;;5013659;28;20456;-66
2022/09/04 11:27:08;;;;;;;1.00;1.00;;;;;;;;;;5013796;28;20166;-68
2022/09/04 11:29:40;;;;;;;2.20;2.10;;;;;;;;;;5013910;28;20409;-69
2022/09/04 11:32:24;;;;;;;1.20;1.20;;;;;;;;;;5013582;28;20412;-70
2022/09/04 11:35:01;;;;;;;1.27;1.20;;;;;;;;;;5013827;28;20496;-70
2022/09/04 11:37:40;;;;;;;2.40;0.90;;;;;;;;;;5013593;28;20504;-69
2022/09/04 11:40:18;;;;;;;5.40;1.43;;;;;;;;;;5013544;28;20405;-69
2022/09/04 11:42:45;;;;;;;1.00;1.00;;;;;;;;;;5015120;28;20417;-69
2022/09/04 11:45:19;;;;;;;1.03;1.03;;;;;;;;;;5017961;28;20459;-68
2022/09/04 11:47:55;;;;;;;1.30;1.30;;;;;;;;;;5017864;28;20415;-69
2022/09/04 11:50:27;;;;;;;2.10;1.00;;;;;;;;;;5017577;28;20408;-70
2022/09/04 11:52:52;;;;;;;1.20;1.20;;;;;;;;;;5017421;28;20551;-70
2022/09/04 11:55:18;;;;;;;1.20;1.10;;;;;;;;;;5017623;28;20508;-70
2022/09/04 11:58:03;;;;;;;1.10;1.10;;;;;;;;;;5017441;28;20181;-71
2022/09/04 12:00:41;;;;;;;1.17;1.07;;;;;;;;;;5017389;28;20208;-71
2022/09/04 12:03:26;;;;;;;1.17;1.10;;;;;;;;;;5017509;28;20452;-70
2022/09/04 12:05:52;;;;;;;1.10;1.10;;;;;;;;;;5017328;28;20456;-71
2022/09/04 12:08:36;;;;;;;1.63;1.00;;;;;;;;;;5017210;28;20904;-70
2022/09/04 12:11:02;;;;;;;1.33;1.23;;;;;;;;;;5017132;28;20208;-69
2022/09/04 12:13:51;;;;;;;3.13;1.10;;;;;;;;;;5017168;28;20413;-70
2022/09/04 12:16:41;;;;;;;1.77;0.90;;;;;;;;;;5017447;28;20253;-70
2022/09/04 12:19:07;;;;;;;2.00;1.23;;;;;;;;;;5017039;28;20397;-71
2022/09/04 12:21:52;;;;;;;0.90;0.90;;;;;;;;;;5017023;28;20591;-69
2022/09/04 12:24:30;;;;;;;1.17;1.17;;;;;;;;;;5016907;28;20401;-71
2022/09/04 12:26:56;;;;;;;1.20;1.20;;;;;;;;;;5016921;28;20397;-69
2022/09/04 12:29:28;;;;;;;1.40;1.30;;;;;;;;;;5016880;28;20404;-69
2022/09/04 12:31:57;;;;;;;0.97;0.97;;;;;;;;;;5016886;28;20166;-69
2022/09/04 12:34:42;;;;;;;4.97;1.20;;;;;;;;;;5016812;28;20450;-69
2022/09/04 12:37:11;;;;;;;1.20;1.20;;;;;;;;;;5016693;28;20488;-69
2022/09/04 12:39:41;;;;;;;1.23;1.23;;;;;;;;;;5016666;28;20436;-69
2022/09/04 12:42:07;;;;;;;2.00;0.93;;;;;;;;;;5016590;28;20982;-79
2022/09/04 12:44:52;;;;;;;1.20;1.20;;;;;;;;;;5016625;28;20401;-77
2022/09/04 12:47:36;;;;;;;1.10;1.10;;;;;;;;;;5016635;28;20484;-77
2022/09/04 12:50:14;;;;;;;1.97;1.10;;;;;;;;;;5016645;28;20492;-77
2022/09/04 12:53:01;;;;;;;1.10;1.10;;;;;;;;;;5016355;28;20464;-75
2022/09/04 12:55:36;;;;;;;2.20;1.80;;;;;;;;;;5016394;28;20401;-75
2022/09/04 12:58:20;;;;;;;1.20;1.10;;;;;;;;;;5013851;28;20411;-69
2022/09/04 13:00:54;;;;;;;1.10;1.10;;;;;;;;;;5014622;28;20456;-69
2022/09/04 13:03:20;;;;;;;1.03;1.03;;;;;;;;;;5014742;28;20439;-70
2022/09/04 13:05:52;;;;;;;1.07;1.07;;;;;;;;;;5014739;28;20884;-67
2022/09/04 13:08:37;;;;;;;0.90;0.90;;;;;;;;;;5014057;28;20174;-69
2022/09/04 13:11:03;;;;;;;1.23;1.23;;;;;;;;;;5014381;28;20409;-74
2022/09/04 13:13:35;;;;;;;1.90;1.10;;;;;;;;;;5014386;28;20405;-75
2022/09/04 13:16:00;;;;;;;1.13;1.13;;;;;;;;;;5014483;28;20174;-76
2022/09/04 13:18:33;;;;;;;1.10;1.10;;;;;;;;;;5029511;28;20903;-73
2022/09/04 13:21:07;;;;;;;2.93;1.30;;;;;;;;;;5014394;28;20460;-77
2022/09/04 13:23:40;;;;;;;1.13;0.87;;;;;;;;;;5013620;28;20408;-77
2022/09/04 13:26:14;;;;;;;0.97;0.97;;;;;;;;;;5013988;28;20877;-68
2022/09/04 13:28:50;;;;;;;1.00;1.00;;;;;;;;;;5014272;28;20797;-69
2022/09/04 13:31:19;;;;;;;1.30;1.30;;;;;;;;;;5014157;28;20504;-69
2022/09/04 13:33:57;;;;;;;1.10;1.10;;;;;;;;;;5014203;28;20559;-68
2022/09/04 13:36:39;;;;;;;1.20;1.10;;;;;;;;;;5014367;28;20401;-72
2022/09/04 13:39:13;;;;;;;0.93;0.93;;;;;;;;;;5014718;28;20478;-71
2022/09/04 13:41:58;;;;;;;0.90;0.90;;;;;;;;;;5014017;28;20468;-72
2022/09/04 13:44:42;;;;;;;2.03;1.10;;;;;;;;;;5014129;28;20390;-70
2022/09/04 13:47:13;;;;;;;1.00;1.00;;;;;;;;;;5014034;28;20444;-70
2022/09/04 13:49:52;;;;;;;1.17;1.17;;;;;;;;;;5014152;28;20395;-73
2022/09/04 13:52:26;;;;;;;1.70;1.60;;;;;;;;;;5013903;28;20464;-72
2022/09/04 13:54:57;;;;;;;1.20;1.10;;;;;;;;;;5013998;28;20398;-72
2022/09/04 13:57:26;;;;;;;0.80;0.80;;;;;;;;;;5013987;28;20409;-73
2022/09/04 13:59:57;;;;;;;1.43;1.00;;;;;;;;;;5013968;28;20412;-70
2022/09/04 14:02:25;;;;;;;1.23;1.00;;;;;;;;;;5014184;28;20475;-77
2022/09/04 14:04:55;;;;;;;1.67;1.17;;;;;;;;;;5012937;28;20496;-71
2022/09/04 14:07:28;;;;;;;0.97;0.97;;;;;;;;;;5013780;28;20412;-71
2022/09/04 14:09:55;;;;;;;1.00;1.00;;;;;;;;;;5013809;28;20394;-69
2022/09/04 14:12:40;;;;;;;2.30;1.13;;;;;;;;;;5013496;28;20397;-69
2022/09/04 14:15:12;;;;;;;1.47;1.20;;;;;;;;;;5013967;28;20535;-72
2022/09/04 14:17:45;;;;;;;1.10;1.10;;;;;;;;;;5013619;28;20459;-69
2022/09/04 14:20:16;;;;;;;1.20;1.20;;;;;;;;;;5013845;28;20785;-72
2022/09/04 14:23:02;;;;;;;1.43;1.43;;;;;;;;;;5014100;28;20413;-73
2022/09/04 14:25:28;;;;;;;1.10;1.10;;;;;;;;;;5013364;28;20499;-70
2022/09/04 14:28:02;;;;;;;2.37;1.23;;;;;;;;;;5013502;28;20397;-72
2022/09/04 14:30:30;;;;;;;1.10;1.10;;;;;;;;;;5013728;28;20412;-74
2022/09/04 14:32:56;;;;;;;1.37;1.20;;;;;;;;;;5013345;28;20441;-69
2022/09/04 14:35:45;;;;;;;2.00;1.30;;;;;;;;;;5013122;28;20883;-80
2022/09/04 14:38:29;;;;;;;1.00;1.00;;;;;;;;;;5013113;28;20393;-76
2022/09/04 14:41:07;;;;;;;1.37;1.27;;;;;;;;;;5013204;28;20567;-83
2022/09/04 14:43:36;;;;;;;1.27;1.10;;;;;;;;;;5012837;28;20408;-80
2022/09/04 14:51:42;;;;;;;1.37;1.27;;;;;;;;;;5011491;23;20508;-70
2022/09/04 14:54:13;;;;;;;5.40;1.30;;;;;;;;;;5011572;28;20558;-71
2022/09/04 14:56:39;;;;;;;0.90;0.90;;;;;;;;;;5011156;28;20778;-70
2022/09/04 14:59:05;;;;;;;1.80;1.40;;;;;;;;;;5011366;28;20416;-70
2022/09/04 15:01:33;;;;;;;2.07;1.30;;;;;;;;;;4993465;28;20839;-68
2022/09/04 15:04:04;;;;;;;1.00;1.00;;;;;;;;;;4993537;28;21022;-68
2022/09/04 15:06:50;;;;;;;2.10;1.30;;;;;;;;;;5010787;28;20687;-69
2022/09/04 15:09:19;;;;;;;1.00;1.00;;;;;;;;;;5011098;28;20547;-69
2022/09/04 15:11:45;;;;;;;1.10;1.10;;;;;;;;;;4993936;28;20444;-68
2022/09/04 15:14:25;;;;;;;1.93;1.20;;;;;;;;;;4993497;28;20437;-69
2022/09/04 15:16:53;;;;;;;0.93;0.93;;;;;;;;;;4993825;28;20436;-69
2022/09/04 15:19:31;;;;;;;1.20;1.03;;;;;;;;;;5001147;28;20426;-70
2022/09/04 15:22:05;;;;;;;1.30;1.20;;;;;;;;;;5011353;28;20468;-70
2022/09/04 15:24:31;;;;;;;1.20;1.20;;;;;;;;;;4993376;28;22002;-70
2022/09/04 15:27:18;;;;;;;3.30;1.40;;;;;;;;;;5010898;28;20433;-70
2022/09/04 15:29:44;;;;;;;2.43;1.17;;;;;;;;;;4986911;28;20950;-69
2022/09/04 15:32:10;;;;;;;1.00;1.00;;;;;;;;;;4991750;28;20457;-71
2022/09/04 15:34:36;;;;;;;1.40;1.30;;;;;;;;;;4990624;28;20649;-72
2022/09/04 15:37:11;;;;;;;1.00;1.00;;;;;;;;;;4991272;28;20425;-71
2022/09/04 15:39:43;;;;;;;0.97;0.97;;;;;;;;;;4991185;28;20528;-69
2022/09/04 15:42:09;;;;;;;1.23;1.13;;;;;;;;;;4975556;28;20527;-70